Date,TemperatureHighF,TemperatureAvgF,TemperatureLowF,DewpointHighF,DewpointAvgF,DewpointLowF,HumidityHigh,HumidityAvg,HumidityLow,PressureMaxIn,PressureMinIn,WindSpeedMaxMPH,WindSpeedAvgMPH,GustSpeedMaxMPH,PrecipitationSumIn
2013-3-1,53.9,43.5,34.6,27.0,24.6,20.4,70,49,28,30.47,30.25,14,3,15,0.00
2013-3-2,51.1,42.9,36.9,26.2,20.2,15.3,65,41,25,30.26,30.01,20,4,24,0.00
2013-3-3,36.9,31.9,28.2,30.4,28.9,26.2,94,89,65,30.14,29.95,16,4,26,0.12
2013-3-4,44.9,34.3,26.1,31.4,27.0,20.5,93,76,49,30.20,30.03,11,2,12,0.02
2013-3-5,44.3,35.2,30.0,25.8,21.6,12.1,84,58,39,30.03,29.64,29,7,38,0.00
2013-3-6,29.4,22.4,18.9,25.9,18.1,-99.9,93,86,79,30.14,29.69,30,-1,34,0.00
2013-3-7,28.5,23.5,19.7,25.1,20.2,16.0,90,87,83,30.10,29.92,14,3,16,0.01
2013-3-8,31.2,24.9,22.5,25.5,19.1,-99.9,90,85,75,30.06,29.86,14,-22,14,0.00
2013-3-9,37.2,28.1,21.8,21.5,7.7,-99.9,87,51,27,30.49,29.97,20,-43,24,0.01
2013-3-10,47.4,35.9,25.7,12.9,6.9,2.2,41,30,16,30.50,30.33,17,5,22,0.00
2013-3-11,57.8,44.5,33.2,20.3,10.0,3.7,35,24,16,30.34,30.10,12,2,12,0.00
2013-3-12,61.8,47.2,37.8,33.9,17.6,1.3,61,32,13,30.20,30.03,9,2,12,0.00
2013-3-13,59.0,49.7,39.2,33.3,23.3,10.1,62,38,16,30.19,30.03,15,4,17,0.00
2013-3-14,59.5,50.0,43.3,32.5,18.1,7.4,60,29,18,30.14,30.02,23,6,25,0.00
2013-3-15,53.3,46.0,40.6,27.9,17.4,5.1,55,32,20,30.14,29.97,21,7,22,0.00
2013-3-16,48.8,40.8,33.8,24.9,17.2,5.1,63,39,19,30.06,29.94,34,9,36,0.00
2013-3-17,47.1,38.2,30.9,22.1,11.6,-0.0,59,35,17,30.11,29.98,24,10,25,0.00
2013-3-18,46.2,38.6,32.9,29.4,12.5,3.4,70,35,21,30.12,30.02,23,7,25,0.00
2013-3-19,45.8,37.6,32.2,31.8,26.6,11.6,91,65,38,30.11,30.02,30,8,30,0.00
2013-3-20,37.5,33.0,30.7,35.7,30.3,25.2,97,90,76,30.10,29.94,33,15,35,0.01
2013-3-21,43.5,34.9,27.8,27.9,18.2,-0.8,76,53,18,30.12,29.97,28,6,32,0.00
2013-3-22,43.8,32.5,26.1,21.5,2.6,-16.6,71,33,9,30.17,30.00,20,4,21,0.00
2013-3-23,44.9,32.5,18.1,20.7,9.6,-0.4,55,40,16,30.25,30.08,27,6,29,0.00
2013-3-24,48.2,39.1,30.9,26.7,19.3,4.3,76,47,23,30.13,29.96,24,7,26,0.00
2013-3-25,51.0,40.3,34.7,25.6,7.9,-99.9,62,28,16,30.01,29.85,25,-4,29,0.00
2013-3-26,42.9,36.7,32.7,30.9,24.7,13.6,89,63,41,29.96,29.79,29,10,35,0.00
2013-3-27,47.9,37.4,31.5,33.2,28.6,23.9,88,72,41,30.01,29.90,23,6,27,0.00
2013-3-28,47.7,37.2,32.5,33.3,29.5,23.1,92,75,43,30.17,29.92,19,4,21,0.13
2013-3-29,52.0,42.5,32.4,38.3,30.4,26.5,86,64,38,30.24,30.05,11,2,13,0.01
2013-3-30,59.2,46.4,40.6,35.3,29.7,24.7,79,54,28,30.08,29.85,19,3,19,0.00
2013-3-31,41.9,34.8,29.3,34.7,29.6,24.0,94,82,53,30.09,29.81,19,6,21,0.06